Time;durP1;ratioP1;P1;durP2;ratioP2;P2;SDS_P1;SDS_P2;PMS_P1;PMS_P2;Temp;Humidity;BMP_temperature;BMP_pressure;BME280_temperature;BME280_humidity;BME280_pressure;Samples;Min_cycle;Max_cycle;Signal;HPM_P1;HPM_P2
2022/01/05 00:00:28;;;;;;;2.65;1.60;;;;;;;;;;5079551;28;20071;-79
2022/01/05 00:02:53;;;;;;;2.20;1.52;;;;;;;;;;5078296;28;20032;-80
2022/01/05 00:05:18;;;;;;;3.88;1.50;;;;;;;;;;5076907;28;20036;-80
2022/01/05 00:07:44;;;;;;;1.98;1.33;;;;;;;;;;5078953;28;20016;-81
2022/01/05 00:10:10;;;;;;;3.78;1.35;;;;;;;;;;5079091;28;20548;-81
2022/01/05 00:12:35;;;;;;;2.05;1.50;;;;;;;;;;5078738;28;20024;-81
2022/01/05 00:15:00;;;;;;;3.67;1.80;;;;;;;;;;5078539;28;20025;-80
2022/01/05 00:17:25;;;;;;;2.58;1.50;;;;;;;;;;5077970;28;20029;-82
2022/01/05 00:19:51;;;;;;;3.22;1.63;;;;;;;;;;5078114;28;20024;-82
2022/01/05 00:22:16;;;;;;;3.67;1.52;;;;;;;;;;5076231;28;20497;-81
2022/01/05 00:24:41;;;;;;;2.80;1.42;;;;;;;;;;5076469;28;20020;-79
2022/01/05 00:27:07;;;;;;;4.78;1.50;;;;;;;;;;5076174;28;20020;-82
2022/01/05 00:29:32;;;;;;;3.97;1.42;;;;;;;;;;5076427;28;20028;-81
2022/01/05 00:31:57;;;;;;;1.70;1.27;;;;;;;;;;5077582;28;20028;-80
2022/01/05 00:34:22;;;;;;;2.17;1.30;;;;;;;;;;5077762;28;20024;-81
2022/01/05 00:36:48;;;;;;;2.22;1.10;;;;;;;;;;5077703;28;20035;-82
2022/01/05 00:39:13;;;;;;;1.75;1.30;;;;;;;;;;5076815;28;20021;-80
2022/01/05 00:41:38;;;;;;;2.20;1.27;;;;;;;;;;5075698;28;20032;-79
2022/01/05 00:44:04;;;;;;;1.40;1.10;;;;;;;;;;5075855;28;20394;-81
2022/01/05 00:46:29;;;;;;;1.65;0.93;;;;;;;;;;5076151;28;20024;-79
2022/01/05 00:48:54;;;;;;;1.25;0.82;;;;;;;;;;5077153;28;20021;-80
2022/01/05 00:51:20;;;;;;;1.27;0.98;;;;;;;;;;5081239;28;20070;-77
2022/01/05 00:53:45;;;;;;;2.58;1.00;;;;;;;;;;5078513;28;20074;-78
2022/01/05 00:56:10;;;;;;;2.70;0.90;;;;;;;;;;5078303;28;20025;-78
2022/01/05 00:58:35;;;;;;;1.30;0.90;;;;;;;;;;5078451;28;20038;-78
2022/01/05 01:01:01;;;;;;;3.85;0.95;;;;;;;;;;5077096;28;20030;-78
2022/01/05 01:03:29;;;;;;;1.42;0.88;;;;;;;;;;5077760;28;20028;-77
2022/01/05 01:05:56;;;;;;;0.70;0.70;;;;;;;;;;5077962;28;20028;-79
2022/01/05 01:08:21;;;;;;;1.17;0.80;;;;;;;;;;5076787;28;20092;-80
2022/01/05 01:10:47;;;;;;;2.95;0.88;;;;;;;;;;5078502;28;20126;-77
2022/01/05 01:13:16;;;;;;;0.90;0.77;;;;;;;;;;5077700;28;20029;-79
2022/01/05 01:15:44;;;;;;;0.68;0.65;;;;;;;;;;5076397;28;20028;-77
2022/01/05 01:18:09;;;;;;;1.00;0.80;;;;;;;;;;5077487;28;20473;-79
2022/01/05 01:20:34;;;;;;;0.65;0.65;;;;;;;;;;5077095;28;20031;-76
2022/01/05 01:23:00;;;;;;;1.98;0.80;;;;;;;;;;5078432;28;20078;-78
2022/01/05 01:25:25;;;;;;;0.80;0.70;;;;;;;;;;5078155;28;20029;-78
2022/01/05 01:27:50;;;;;;;1.65;0.80;;;;;;;;;;5078903;28;20021;-78
2022/01/05 01:30:15;;;;;;;2.50;0.73;;;;;;;;;;5078048;28;20024;-79
2022/01/05 01:32:41;;;;;;;1.38;1.00;;;;;;;;;;5075887;28;20431;-80
2022/01/05 01:35:07;;;;;;;0.70;0.70;;;;;;;;;;5076393;28;20020;-79
2022/01/05 01:37:32;;;;;;;1.23;0.82;;;;;;;;;;5077893;28;20084;-78
2022/01/05 01:39:58;;;;;;;1.40;1.00;;;;;;;;;;5077392;28;20501;-79
2022/01/05 01:42:23;;;;;;;1.85;0.70;;;;;;;;;;5077710;28;20096;-79
2022/01/05 01:44:48;;;;;;;1.02;0.80;;;;;;;;;;5076686;28;20033;-78
2022/01/05 01:47:14;;;;;;;1.42;0.90;;;;;;;;;;5077695;28;20451;-78
2022/01/05 01:49:39;;;;;;;0.80;0.80;;;;;;;;;;5077617;28;20025;-78
2022/01/05 01:52:05;;;;;;;2.50;0.80;;;;;;;;;;5076449;28;20021;-77
2022/01/05 01:54:30;;;;;;;1.02;0.90;;;;;;;;;;5078117;28;20024;-78
2022/01/05 01:56:56;;;;;;;1.15;0.88;;;;;;;;;;5077505;28;20020;-79
2022/01/05 01:59:21;;;;;;;0.90;0.80;;;;;;;;;;5076864;28;20025;-78
2022/01/05 02:01:46;;;;;;;1.25;0.82;;;;;;;;;;5077950;28;20054;-79
2022/01/05 02:04:11;;;;;;;1.20;0.80;;;;;;;;;;5077833;28;20374;-79
2022/01/05 02:06:37;;;;;;;1.60;0.73;;;;;;;;;;5077555;28;20024;-78
2022/01/05 02:09:04;;;;;;;0.80;0.77;;;;;;;;;;5078985;28;20465;-78
2022/01/05 02:11:31;;;;;;;1.13;0.80;;;;;;;;;;5076894;28;20035;-78
2022/01/05 02:13:56;;;;;;;0.98;0.75;;;;;;;;;;5078813;28;20051;-77
2022/01/05 02:16:29;;;;;;;1.17;0.70;;;;;;;;;;5077911;28;20028;-78
2022/01/05 02:18:58;;;;;;;1.08;0.70;;;;;;;;;;5077714;28;20099;-77
2022/01/05 02:21:24;;;;;;;0.80;0.70;;;;;;;;;;5077860;28;20055;-77
2022/01/05 02:23:49;;;;;;;1.27;0.60;;;;;;;;;;5078129;28;20081;-78
2022/01/05 02:26:15;;;;;;;0.93;0.70;;;;;;;;;;5077843;28;20135;-80
2022/01/05 02:28:40;;;;;;;1.20;0.70;;;;;;;;;;5076097;28;20044;-78
2022/01/05 02:31:06;;;;;;;1.05;0.75;;;;;;;;;;5077711;28;20024;-78
2022/01/05 02:33:32;;;;;;;0.60;0.55;;;;;;;;;;5076380;28;20028;-77
2022/01/05 02:35:57;;;;;;;0.60;0.60;;;;;;;;;;5075529;28;20389;-77
2022/01/05 02:38:23;;;;;;;0.70;0.60;;;;;;;;;;5077154;28;20020;-78
2022/01/05 02:40:50;;;;;;;0.50;0.50;;;;;;;;;;5076596;28;20033;-78
2022/01/05 02:43:15;;;;;;;0.60;0.60;;;;;;;;;;5076802;28;20017;-78
2022/01/05 02:45:41;;;;;;;0.60;0.60;;;;;;;;;;5077436;28;20031;-79
2022/01/05 02:48:07;;;;;;;0.50;0.50;;;;;;;;;;5076839;28;20027;-78
2022/01/05 02:50:32;;;;;;;0.65;0.65;;;;;;;;;;5075568;28;20028;-78
2022/01/05 02:52:57;;;;;;;1.98;0.80;;;;;;;;;;5075684;28;20490;-80
2022/01/05 02:55:23;;;;;;;0.60;0.60;;;;;;;;;;5076737;28;20044;-79
2022/01/05 02:57:48;;;;;;;1.27;0.90;;;;;;;;;;5076234;28;20424;-79
2022/01/05 03:00:16;;;;;;;1.80;0.70;;;;;;;;;;5074340;28;20508;-78
2022/01/05 03:02:42;;;;;;;0.57;0.57;;;;;;;;;;5076653;28;20047;-78
2022/01/05 03:05:08;;;;;;;1.00;0.70;;;;;;;;;;5081348;28;20462;-79
2022/01/05 03:07:38;;;;;;;0.60;0.60;;;;;;;;;;5082427;28;20028;-79
2022/01/05 03:10:04;;;;;;;1.10;0.70;;;;;;;;;;5083985;28;20027;-79
2022/01/05 03:12:30;;;;;;;0.75;0.73;;;;;;;;;;5082976;28;20028;-77
2022/01/05 03:14:55;;;;;;;0.65;0.60;;;;;;;;;;5082724;28;20025;-76
2022/01/05 03:17:20;;;;;;;1.67;0.90;;;;;;;;;;5082881;28;20130;-77
2022/01/05 03:19:45;;;;;;;0.70;0.70;;;;;;;;;;5083041;28;20024;-79
2022/01/05 03:22:11;;;;;;;0.85;0.80;;;;;;;;;;5082317;28;20020;-77
2022/01/05 03:24:36;;;;;;;0.75;0.70;;;;;;;;;;5082535;28;20052;-79
2022/01/05 03:27:02;;;;;;;1.40;0.73;;;;;;;;;;5082528;28;20111;-78
2022/01/05 03:29:27;;;;;;;1.73;0.80;;;;;;;;;;5082610;28;20080;-78
2022/01/05 03:31:52;;;;;;;0.73;0.60;;;;;;;;;;5083348;28;20100;-78
2022/01/05 03:34:18;;;;;;;2.33;0.70;;;;;;;;;;5081913;28;20146;-76
2022/01/05 03:36:43;;;;;;;1.10;0.80;;;;;;;;;;5081504;28;20032;-76
2022/01/05 03:39:09;;;;;;;1.48;0.90;;;;;;;;;;5080554;28;20017;-77
2022/01/05 03:41:34;;;;;;;2.55;0.80;;;;;;;;;;5082318;28;20035;-79
2022/01/05 03:43:59;;;;;;;1.00;0.80;;;;;;;;;;5081907;28;20033;-77
2022/01/05 03:46:24;;;;;;;2.15;0.80;;;;;;;;;;5082189;28;20101;-78
2022/01/05 03:48:50;;;;;;;0.77;0.70;;;;;;;;;;5082060;28;20482;-78
2022/01/05 03:51:15;;;;;;;0.60;0.60;;;;;;;;;;5083726;28;20492;-80
2022/01/05 03:53:40;;;;;;;0.90;0.73;;;;;;;;;;5083225;28;20091;-76
2022/01/05 03:56:05;;;;;;;0.88;0.60;;;;;;;;;;5082532;28;20024;-78
2022/01/05 03:58:31;;;;;;;1.50;0.80;;;;;;;;;;5083229;28;20028;-78
2022/01/05 04:00:56;;;;;;;0.88;0.60;;;;;;;;;;5083178;28;20052;-78
2022/01/05 04:03:21;;;;;;;4.40;1.10;;;;;;;;;;5083300;28;20048;-78
2022/01/05 04:05:47;;;;;;;0.90;0.60;;;;;;;;;;5082916;28;20020;-78
2022/01/05 04:08:12;;;;;;;1.15;0.60;;;;;;;;;;5081423;28;20016;-79
2022/01/05 04:10:39;;;;;;;1.15;0.50;;;;;;;;;;5083189;28;20033;-80
2022/01/05 04:13:04;;;;;;;0.55;0.52;;;;;;;;;;5082658;28;20111;-79
2022/01/05 04:15:30;;;;;;;0.73;0.43;;;;;;;;;;5077212;28;20105;-77
2022/01/05 04:17:55;;;;;;;1.73;0.80;;;;;;;;;;5079435;28;20042;-78
2022/01/05 04:20:21;;;;;;;2.30;0.65;;;;;;;;;;5079911;28;20076;-79
2022/01/05 04:22:46;;;;;;;0.40;0.40;;;;;;;;;;5080258;28;20531;-79
2022/01/05 04:25:13;;;;;;;0.63;0.50;;;;;;;;;;5077403;28;20107;-79
2022/01/05 04:27:38;;;;;;;0.63;0.60;;;;;;;;;;5079197;28;20071;-79
2022/01/05 04:30:06;;;;;;;0.38;0.38;;;;;;;;;;5078159;28;20021;-78
2022/01/05 04:32:31;;;;;;;1.38;0.60;;;;;;;;;;5078975;28;20059;-80
2022/01/05 04:34:57;;;;;;;0.88;0.60;;;;;;;;;;5079860;28;20392;-79
2022/01/05 04:37:23;;;;;;;0.88;0.60;;;;;;;;;;5079422;28;20082;-80
2022/01/05 04:39:48;;;;;;;1.38;0.73;;;;;;;;;;5079519;28;20103;-78
2022/01/05 04:42:13;;;;;;;2.67;1.67;;;;;;;;;;5079766;28;20029;-77
2022/01/05 04:44:38;;;;;;;3.15;1.75;;;;;;;;;;5079858;28;20099;-79
2022/01/05 04:47:05;;;;;;;5.00;3.08;;;;;;;;;;5079517;28;20051;-77
2022/01/05 04:49:30;;;;;;;2.75;1.73;;;;;;;;;;5078727;28;20031;-78
2022/01/05 04:51:55;;;;;;;0.55;0.50;;;;;;;;;;5079630;28;20021;-76
2022/01/05 04:54:20;;;;;;;0.40;0.30;;;;;;;;;;5078415;28;20048;-78
2022/01/05 04:56:46;;;;;;;0.60;0.50;;;;;;;;;;5079534;28;20032;-79
2022/01/05 04:59:11;;;;;;;1.08;0.32;;;;;;;;;;5079928;28;20053;-77
2022/01/05 05:01:36;;;;;;;0.65;0.40;;;;;;;;;;5078286;28;20044;-79
2022/01/05 05:04:01;;;;;;;0.10;0.10;;;;;;;;;;5079516;28;20032;-79
2022/01/05 05:06:27;;;;;;;0.20;0.20;;;;;;;;;;5077897;28;20029;-78
2022/01/05 05:08:52;;;;;;;0.20;0.20;;;;;;;;;;5079300;28;20066;-76
2022/01/05 05:11:17;;;;;;;1.42;0.20;;;;;;;;;;5079466;28;20028;-78
2022/01/05 05:13:43;;;;;;;0.15;0.10;;;;;;;;;;5078983;28;20086;-79
2022/01/05 05:16:08;;;;;;;0.30;0.20;;;;;;;;;;5078639;28;20035;-79
2022/01/05 05:18:33;;;;;;;0.28;0.20;;;;;;;;;;5076895;28;20069;-79
2022/01/05 05:20:59;;;;;;;0.20;0.20;;;;;;;;;;5077634;28;20508;-79
2022/01/05 05:23:25;;;;;;;0.10;0.10;;;;;;;;;;5077503;28;20024;-77
2022/01/05 05:25:50;;;;;;;0.55;0.20;;;;;;;;;;5077682;28;20025;-78
2022/01/05 05:28:15;;;;;;;0.20;0.20;;;;;;;;;;5078625;28;20031;-78
2022/01/05 05:30:40;;;;;;;0.20;0.20;;;;;;;;;;5077360;28;20497;-77
2022/01/05 05:33:06;;;;;;;0.20;0.20;;;;;;;;;;5075592;28;20028;-78
2022/01/05 05:35:32;;;;;;;0.20;0.20;;;;;;;;;;5076895;28;20020;-78
2022/01/05 05:37:58;;;;;;;0.40;0.40;;;;;;;;;;5077596;28;20043;-77
2022/01/05 05:40:23;;;;;;;0.50;0.50;;;;;;;;;;5077185;28;20025;-78
2022/01/05 05:42:49;;;;;;;0.77;0.50;;;;;;;;;;5076216;28;20023;-78
2022/01/05 05:45:14;;;;;;;1.52;0.68;;;;;;;;;;5075467;28;20020;-79
2022/01/05 05:47:40;;;;;;;1.50;0.60;;;;;;;;;;5075215;28;20016;-78
2022/01/05 05:50:06;;;;;;;1.45;0.60;;;;;;;;;;5077795;28;20043;-78
2022/01/05 05:52:31;;;;;;;1.30;0.50;;;;;;;;;;5074623;28;20025;-77
2022/01/05 05:54:56;;;;;;;1.20;0.40;;;;;;;;;;5075884;28;20029;-78
2022/01/05 05:57:22;;;;;;;0.47;0.40;;;;;;;;;;5075565;28;20473;-77
2022/01/05 05:59:47;;;;;;;1.88;0.52;;;;;;;;;;5074537;28;20016;-78
2022/01/05 06:02:12;;;;;;;1.70;0.70;;;;;;;;;;5076554;28;20485;-77
2022/01/05 06:04:37;;;;;;;2.47;0.63;;;;;;;;;;5075010;28;20025;-78
2022/01/05 06:07:03;;;;;;;1.15;0.60;;;;;;;;;;5076273;28;20466;-78
2022/01/05 06:09:28;;;;;;;1.52;0.70;;;;;;;;;;5075664;28;20083;-78
2022/01/05 06:11:53;;;;;;;1.77;0.80;;;;;;;;;;5075697;28;20024;-78
2022/01/05 06:14:19;;;;;;;1.52;0.60;;;;;;;;;;5076109;28;20021;-78
2022/01/05 06:16:44;;;;;;;1.30;0.50;;;;;;;;;;5074142;28;20120;-77
2022/01/05 06:19:09;;;;;;;1.92;0.65;;;;;;;;;;5075561;28;20020;-78
2022/01/05 06:21:35;;;;;;;2.13;0.85;;;;;;;;;;5074508;28;20474;-78
2022/01/05 06:24:00;;;;;;;1.92;0.50;;;;;;;;;;5075759;28;20036;-77
2022/01/05 06:26:25;;;;;;;1.42;0.70;;;;;;;;;;5075162;28;20035;-77
2022/01/05 06:28:50;;;;;;;1.30;0.80;;;;;;;;;;5075183;28;20020;-78
2022/01/05 06:31:17;;;;;;;4.20;0.80;;;;;;;;;;5074658;28;20517;-77
2022/01/05 06:33:43;;;;;;;1.85;0.95;;;;;;;;;;5075588;28;20036;-78
2022/01/05 06:36:08;;;;;;;0.63;0.47;;;;;;;;;;5075330;28;20115;-77
2022/01/05 06:38:33;;;;;;;3.03;1.20;;;;;;;;;;5075639;28;20059;-79
2022/01/05 06:40:58;;;;;;;2.45;1.05;;;;;;;;;;5073887;28;20462;-79
2022/01/05 06:43:24;;;;;;;1.85;0.70;;;;;;;;;;5075481;28;20029;-79
2022/01/05 06:45:49;;;;;;;3.45;0.80;;;;;;;;;;5076704;28;20136;-79
2022/01/05 06:48:15;;;;;;;2.65;0.73;;;;;;;;;;5076849;28;20024;-78
2022/01/05 06:50:40;;;;;;;1.67;0.88;;;;;;;;;;5076541;28;20020;-78
2022/01/05 06:53:05;;;;;;;2.03;0.77;;;;;;;;;;5075273;28;20031;-79
2022/01/05 06:55:30;;;;;;;1.02;0.63;;;;;;;;;;5074597;28;20386;-78
2022/01/05 06:57:56;;;;;;;0.73;0.60;;;;;;;;;;5075089;28;20111;-77
2022/01/05 07:00:23;;;;;;;1.13;0.90;;;;;;;;;;5074861;28;20066;-78
2022/01/05 07:02:49;;;;;;;1.75;0.90;;;;;;;;;;5075018;28;20389;-78
2022/01/05 07:05:15;;;;;;;1.65;0.70;;;;;;;;;;5072646;28;20042;-78
2022/01/05 07:07:41;;;;;;;1.48;0.80;;;;;;;;;;5074837;28;20128;-77
2022/01/05 07:10:08;;;;;;;2.05;0.98;;;;;;;;;;5072542;28;20021;-76
2022/01/05 07:12:34;;;;;;;3.25;1.02;;;;;;;;;;5074435;28;20038;-77
2022/01/05 07:15:00;;;;;;;8.10;1.10;;;;;;;;;;5075377;28;20032;-77
2022/01/05 07:17:25;;;;;;;2.47;0.98;;;;;;;;;;5076094;28;20029;-78
2022/01/05 07:19:50;;;;;;;2.15;0.90;;;;;;;;;;5076134;28;20067;-78
2022/01/05 07:22:16;;;;;;;1.40;0.98;;;;;;;;;;5075871;28;20050;-79
2022/01/05 07:24:41;;;;;;;2.20;1.05;;;;;;;;;;5077262;28;20041;-78
2022/01/05 07:27:06;;;;;;;5.45;1.40;;;;;;;;;;5075697;28;20067;-78
2022/01/05 07:29:31;;;;;;;4.03;1.02;;;;;;;;;;5076397;28;20012;-77
2022/01/05 07:31:57;;;;;;;3.63;1.55;;;;;;;;;;5076104;28;20048;-78
2022/01/05 07:34:22;;;;;;;3.63;1.70;;;;;;;;;;5075857;28;20032;-77
2022/01/05 07:36:47;;;;;;;3.33;1.67;;;;;;;;;;5076228;28;20032;-78
2022/01/05 07:39:12;;;;;;;5.38;1.70;;;;;;;;;;5075771;28;20436;-79
2022/01/05 07:41:38;;;;;;;4.22;1.73;;;;;;;;;;5075824;28;20025;-78
2022/01/05 07:44:04;;;;;;;3.47;1.65;;;;;;;;;;5076580;28;20028;-77
2022/01/05 07:46:30;;;;;;;2.15;1.50;;;;;;;;;;5075509;28;20028;-78
2022/01/05 07:48:55;;;;;;;3.78;1.52;;;;;;;;;;5074243;28;20104;-78
2022/01/05 07:51:21;;;;;;;2.72;1.60;;;;;;;;;;5078934;28;20515;-77
2022/01/05 07:53:46;;;;;;;2.00;1.48;;;;;;;;;;5078055;28;20488;-77
2022/01/05 07:56:11;;;;;;;3.47;1.55;;;;;;;;;;5077645;28;20107;-77
2022/01/05 07:58:36;;;;;;;5.50;1.80;;;;;;;;;;5077629;28;20024;-77
2022/01/05 08:01:05;;;;;;;3.25;1.70;;;;;;;;;;5076310;28;20053;-77
2022/01/05 08:03:33;;;;;;;4.53;1.40;;;;;;;;;;5078021;28;20032;-77
2022/01/05 08:06:00;;;;;;;2.10;1.30;;;;;;;;;;5078448;28;20087;-79
2022/01/05 08:08:26;;;;;;;2.35;1.05;;;;;;;;;;5079087;28;20012;-79
2022/01/05 08:10:51;;;;;;;2.17;0.90;;;;;;;;;;5078075;28;20027;-78
2022/01/05 08:13:16;;;;;;;3.60;0.95;;;;;;;;;;5079588;28;20527;-81
2022/01/05 08:15:41;;;;;;;2.17;1.10;;;;;;;;;;5078056;28;20405;-79
2022/01/05 08:18:06;;;;;;;3.70;1.08;;;;;;;;;;5079485;28;20451;-78
2022/01/05 08:20:32;;;;;;;4.10;1.15;;;;;;;;;;5093400;28;20024;-76
2022/01/05 08:22:57;;;;;;;4.68;1.40;;;;;;;;;;5089785;28;20054;-78
2022/01/05 08:25:22;;;;;;;5.88;1.20;;;;;;;;;;5083421;28;20541;-78
2022/01/05 08:27:48;;;;;;;1.33;1.10;;;;;;;;;;5077726;28;20044;-77
2022/01/05 08:30:24;;;;;;;4.30;1.05;;;;;;;;;;5077505;28;20021;-77
2022/01/05 08:32:52;;;;;;;1.88;0.70;;;;;;;;;;5077073;28;20024;-78
2022/01/05 08:35:18;;;;;;;1.17;0.77;;;;;;;;;;5077605;28;20025;-78
2022/01/05 08:37:46;;;;;;;5.18;1.02;;;;;;;;;;5076536;28;20043;-79
2022/01/05 08:40:13;;;;;;;2.80;1.20;;;;;;;;;;5077276;28;20024;-76
2022/01/05 08:42:39;;;;;;;1.00;0.80;;;;;;;;;;5075746;28;20424;-78
2022/01/05 08:45:05;;;;;;;1.10;0.63;;;;;;;;;;5077439;28;20024;-78
2022/01/05 08:47:30;;;;;;;1.90;0.80;;;;;;;;;;5076063;28;20024;-79
2022/01/05 08:49:55;;;;;;;1.65;0.90;;;;;;;;;;5077534;28;20079;-78
2022/01/05 08:52:21;;;;;;;1.95;0.90;;;;;;;;;;5077354;28;20032;-78
2022/01/05 08:54:47;;;;;;;2.47;0.98;;;;;;;;;;5076120;28;20157;-78
2022/01/05 08:57:12;;;;;;;3.67;0.85;;;;;;;;;;5077641;28;20021;-78
2022/01/05 08:59:38;;;;;;;1.95;0.80;;;;;;;;;;5075900;28;20031;-78
2022/01/05 09:02:03;;;;;;;3.92;0.80;;;;;;;;;;5075482;28;20024;-78
2022/01/05 09:04:28;;;;;;;3.13;0.90;;;;;;;;;;5076933;28;20016;-78
2022/01/05 09:06:54;;;;;;;5.22;0.90;;;;;;;;;;5077408;28;20051;-78
2022/01/05 09:09:20;;;;;;;2.60;0.95;;;;;;;;;;5077249;28;20027;-78
2022/01/05 09:11:45;;;;;;;1.58;0.88;;;;;;;;;;5077463;28;20359;-78
2022/01/05 09:14:10;;;;;;;3.58;0.90;;;;;;;;;;5076288;28;20028;-77
2022/01/05 09:16:35;;;;;;;3.97;0.98;;;;;;;;;;5077511;28;20060;-78
2022/01/05 09:19:01;;;;;;;3.42;0.80;;;;;;;;;;5075873;28;20025;-78
2022/01/05 09:21:26;;;;;;;2.08;1.00;;;;;;;;;;5075603;28;20157;-78
2022/01/05 09:23:51;;;;;;;2.55;0.88;;;;;;;;;;5076633;28;20058;-78
2022/01/05 09:26:17;;;;;;;2.97;0.85;;;;;;;;;;5077233;28;20033;-78
2022/01/05 09:28:44;;;;;;;3.28;1.00;;;;;;;;;;5075762;28;20032;-77
2022/01/05 09:31:10;;;;;;;2.55;1.00;;;;;;;;;;5075876;28;20040;-78
2022/01/05 09:33:36;;;;;;;3.83;1.00;;;;;;;;;;5077417;28;20089;-78
2022/01/05 09:36:08;;;;;;;4.43;0.98;;;;;;;;;;5076765;28;20500;-79
2022/01/05 09:41:56;;;;;;;2.92;1.00;;;;;;;;;;5077053;28;20025;-79
2022/01/05 09:44:09;;;;;;;2.88;0.80;;;;;;;;;;5077574;28;20182;-78
2022/01/05 09:46:55;;;;;;;3.80;1.00;;;;;;;;;;5075951;28;20029;-79
2022/01/05 09:49:31;;;;;;;3.40;1.00;;;;;;;;;;5076686;28;20028;-79
2022/01/05 09:52:02;;;;;;;6.57;0.90;;;;;;;;;;5076567;28;20028;-77
2022/01/05 09:54:28;;;;;;;4.63;1.15;;;;;;;;;;5077235;28;20020;-79
2022/01/05 09:56:54;;;;;;;2.22;0.80;;;;;;;;;;5077104;28;20080;-77
2022/01/05 09:59:19;;;;;;;4.15;1.00;;;;;;;;;;5076782;28;20389;-80
2022/01/05 10:01:45;;;;;;;3.25;1.10;;;;;;;;;;5077077;28;20024;-77
2022/01/05 10:04:13;;;;;;;5.68;1.00;;;;;;;;;;5076724;28;20032;-78
2022/01/05 10:06:39;;;;;;;4.30;0.90;;;;;;;;;;5076804;28;20420;-79
2022/01/05 10:09:05;;;;;;;3.17;1.13;;;;;;;;;;5076730;28;20082;-79
2022/01/05 10:11:30;;;;;;;5.40;0.95;;;;;;;;;;5076054;28;20028;-80
2022/01/05 10:13:56;;;;;;;2.42;0.93;;;;;;;;;;5076128;28;20028;-79
2022/01/05 10:16:21;;;;;;;4.47;1.05;;;;;;;;;;5076794;28;20115;-79
2022/01/05 10:18:46;;;;;;;3.53;0.98;;;;;;;;;;5076682;28;20397;-79
2022/01/05 10:21:14;;;;;;;5.88;1.13;;;;;;;;;;5075655;28;20020;-79
2022/01/05 10:23:41;;;;;;;5.07;1.08;;;;;;;;;;5075502;28;20044;-79
2022/01/05 10:26:25;;;;;;;1.27;0.70;;;;;;;;;;5075618;28;20028;-78
2022/01/05 10:28:53;;;;;;;3.53;1.10;;;;;;;;;;5075675;28;20020;-78
2022/01/05 10:31:22;;;;;;;2.63;0.88;;;;;;;;;;5076584;28;20028;-79
2022/01/05 10:33:48;;;;;;;1.02;0.75;;;;;;;;;;5076577;28;20030;-78
2022/01/05 10:36:14;;;;;;;3.83;1.10;;;;;;;;;;5076244;28;20043;-79
2022/01/05 10:38:53;;;;;;;2.83;1.00;;;;;;;;;;5076883;28;20553;-79
2022/01/05 10:41:22;;;;;;;2.30;1.08;;;;;;;;;;5077144;28;20028;-79
2022/01/05 10:44:15;;;;;;;2.13;1.08;;;;;;;;;;5074536;28;20119;-79
2022/01/05 10:46:58;;;;;;;5.25;0.85;;;;;;;;;;5074804;28;20028;-78
2022/01/05 10:49:24;;;;;;;4.82;1.13;;;;;;;;;;5076026;28;20028;-78
2022/01/05 10:51:50;;;;;;;5.38;1.33;;;;;;;;;;5076022;28;20494;-80
2022/01/05 10:54:20;;;;;;;4.05;1.27;;;;;;;;;;5075456;28;20020;-80
2022/01/05 10:56:45;;;;;;;5.55;1.60;;;;;;;;;;5074345;28;20159;-77
2022/01/05 10:59:13;;;;;;;9.48;1.40;;;;;;;;;;5075727;28;20493;-78
2022/01/05 11:01:41;;;;;;;5.38;1.52;;;;;;;;;;5074526;28;20490;-79
2022/01/05 11:04:22;;;;;;;6.97;1.40;;;;;;;;;;5076365;28;20087;-80
2022/01/05 11:06:54;;;;;;;3.05;1.10;;;;;;;;;;5075004;28;20016;-79
2022/01/05 11:09:21;;;;;;;6.03;1.52;;;;;;;;;;5074459;28;20020;-78
2022/01/05 11:11:49;;;;;;;3.08;1.08;;;;;;;;;;5076442;28;20047;-77
2022/01/05 11:14:40;;;;;;;4.07;1.30;;;;;;;;;;5073815;28;20021;-80
2022/01/05 11:17:05;;;;;;;3.38;0.95;;;;;;;;;;5073673;28;20114;-79
2022/01/05 11:19:33;;;;;;;1.98;0.80;;;;;;;;;;5074722;28;20481;-78
2022/01/05 11:22:16;;;;;;;3.33;1.20;;;;;;;;;;5075184;28;20025;-80
2022/01/05 11:24:52;;;;;;;5.25;1.30;;;;;;;;;;5078847;28;20409;-78
2022/01/05 11:27:24;;;;;;;4.13;1.05;;;;;;;;;;5080330;28;20033;-79
2022/01/05 11:29:50;;;;;;;2.13;1.20;;;;;;;;;;5080038;28;20016;-79
2022/01/05 11:32:20;;;;;;;6.93;1.40;;;;;;;;;;5078647;28;20116;-79
2022/01/05 11:34:45;;;;;;;4.38;1.30;;;;;;;;;;5079937;28;20029;-79
2022/01/05 11:37:11;;;;;;;4.18;1.02;;;;;;;;;;5080200;28;20035;-79
2022/01/05 11:39:43;;;;;;;4.78;1.23;;;;;;;;;;5078666;28;20044;-81
2022/01/05 11:42:12;;;;;;;4.90;1.20;;;;;;;;;;5078421;28;20024;-78
2022/01/05 11:44:49;;;;;;;5.60;0.98;;;;;;;;;;5077962;28;20031;-79
2022/01/05 11:47:23;;;;;;;6.38;1.20;;;;;;;;;;5079093;28;20032;-79
2022/01/05 11:49:49;;;;;;;4.63;1.13;;;;;;;;;;5078349;28;20040;-79
2022/01/05 11:52:14;;;;;;;3.78;1.10;;;;;;;;;;5077819;28;20046;-78
2022/01/05 11:54:40;;;;;;;5.07;1.30;;;;;;;;;;5079496;28;20024;-80
2022/01/05 11:57:08;;;;;;;5.10;1.42;;;;;;;;;;5079829;28;20064;-80
2022/01/05 11:59:36;;;;;;;3.88;1.10;;;;;;;;;;5079651;28;20043;-78
2022/01/05 12:02:06;;;;;;;2.95;0.80;;;;;;;;;;5079505;28;20397;-78
2022/01/05 12:04:51;;;;;;;3.92;1.20;;;;;;;;;;5079669;28;20021;-79
2022/01/05 12:07:34;;;;;;;5.80;1.15;;;;;;;;;;5079686;28;20029;-79
2022/01/05 12:09:59;;;;;;;4.78;1.10;;;;;;;;;;5080482;28;20055;-79
2022/01/05 12:12:29;;;;;;;2.40;0.73;;;;;;;;;;5080254;28;20021;-79
2022/01/05 12:14:54;;;;;;;6.05;1.20;;;;;;;;;;5080477;28;20031;-79
2022/01/05 12:17:20;;;;;;;5.60;1.05;;;;;;;;;;5080339;28;20033;-80
2022/01/05 12:19:46;;;;;;;2.35;1.20;;;;;;;;;;5078623;28;20020;-79
2022/01/05 12:22:17;;;;;;;3.17;1.23;;;;;;;;;;5079312;28;20047;-78
2022/01/05 12:25:03;;;;;;;3.83;1.13;;;;;;;;;;5078318;28;20055;-80
2022/01/05 12:27:52;;;;;;;2.95;1.45;;;;;;;;;;5078098;28;20438;-78
2022/01/05 12:30:18;;;;;;;6.32;1.15;;;;;;;;;;5078053;28;20043;-80
2022/01/05 12:32:46;;;;;;;3.22;1.00;;;;;;;;;;5078380;28;20478;-78
2022/01/05 12:35:14;;;;;;;3.72;1.15;;;;;;;;;;5077756;28;20084;-79
2022/01/05 12:37:46;;;;;;;3.80;1.02;;;;;;;;;;5077285;28;20440;-80
2022/01/05 12:40:25;;;;;;;2.50;0.95;;;;;;;;;;5079175;28;20039;-78
2022/01/05 12:43:08;;;;;;;3.85;1.02;;;;;;;;;;5078424;28;20449;-80
2022/01/05 12:45:49;;;;;;;2.95;1.05;;;;;;;;;;5078625;28;20111;-79
2022/01/05 12:48:33;;;;;;;4.78;1.55;;;;;;;;;;5078617;28;20027;-79
2022/01/05 12:51:23;;;;;;;7.28;1.27;;;;;;;;;;5088874;28;20048;-77
2022/01/05 12:53:56;;;;;;;1.80;0.90;;;;;;;;;;5090873;28;20181;-76
2022/01/05 12:56:48;;;;;;;5.17;1.07;;;;;;;;;;5085362;28;20020;-78
2022/01/05 12:59:30;;;;;;;2.90;0.90;;;;;;;;;;5073929;28;20033;-80
2022/01/05 13:02:00;;;;;;;3.35;1.15;;;;;;;;;;5077723;28;20049;-80
2022/01/05 13:04:26;;;;;;;4.35;1.05;;;;;;;;;;5077635;28;20186;-78
2022/01/05 13:06:54;;;;;;;5.18;1.33;;;;;;;;;;5077034;28;20115;-79
2022/01/05 13:09:26;;;;;;;3.85;1.10;;;;;;;;;;5077007;28;20481;-78
2022/01/05 13:11:55;;;;;;;3.67;1.02;;;;;;;;;;5077004;28;20032;-77
2022/01/05 13:14:37;;;;;;;3.05;1.08;;;;;;;;;;5076712;28;20539;-79
2022/01/05 13:17:07;;;;;;;4.63;1.15;;;;;;;;;;5077243;28;20056;-78
2022/01/05 13:19:52;;;;;;;1.67;0.88;;;;;;;;;;5078137;28;20032;-78
2022/01/05 13:22:28;;;;;;;7.65;0.98;;;;;;;;;;5076363;28;20024;-79
2022/01/05 13:25:08;;;;;;;1.13;0.70;;;;;;;;;;5077415;28;20058;-78
2022/01/05 13:27:37;;;;;;;2.45;1.10;;;;;;;;;;5077004;28;20055;-77
2022/01/05 13:30:19;;;;;;;2.45;0.90;;;;;;;;;;5077643;28;20025;-79
2022/01/05 13:32:47;;;;;;;3.53;1.10;;;;;;;;;;5077539;28;20077;-78
2022/01/05 13:35:18;;;;;;;1.88;0.63;;;;;;;;;;5077453;28;20153;-78
2022/01/05 13:37:45;;;;;;;2.95;1.00;;;;;;;;;;5076185;28;20036;-80
2022/01/05 13:40:10;;;;;;;3.38;0.82;;;;;;;;;;5077230;28;20036;-79
2022/01/05 13:42:44;;;;;;;5.18;1.23;;;;;;;;;;5076900;28;20047;-79
2022/01/05 13:45:13;;;;;;;2.58;1.00;;;;;;;;;;5077412;28;20025;-78
2022/01/05 13:47:40;;;;;;;2.08;1.02;;;;;;;;;;5075126;28;20024;-80
2022/01/05 13:50:07;;;;;;;2.83;1.20;;;;;;;;;;5076829;28;20028;-77
2022/01/05 13:52:32;;;;;;;3.45;1.50;;;;;;;;;;5076002;28;20024;-79
2022/01/05 13:54:58;;;;;;;4.38;0.90;;;;;;;;;;5077018;28;20042;-78
2022/01/05 13:57:31;;;;;;;4.75;1.08;;;;;;;;;;5075728;28;20025;-78
2022/01/05 14:00:04;;;;;;;5.35;1.30;;;;;;;;;;5077112;28;20033;-79
2022/01/05 14:02:29;;;;;;;2.80;0.90;;;;;;;;;;5077583;28;20036;-79
2022/01/05 14:04:59;;;;;;;1.75;0.90;;;;;;;;;;5075377;28;20031;-79
2022/01/05 14:07:27;;;;;;;2.47;0.90;;;;;;;;;;5076605;28;20032;-79
2022/01/05 14:10:08;;;;;;;1.73;1.02;;;;;;;;;;5076023;28;20448;-79
2022/01/05 14:12:36;;;;;;;2.08;0.98;;;;;;;;;;5076598;28;20028;-79
2022/01/05 14:15:04;;;;;;;3.63;1.00;;;;;;;;;;5075336;28;20474;-79
2022/01/05 14:17:31;;;;;;;3.25;0.82;;;;;;;;;;5076839;28;20032;-79
2022/01/05 14:20:14;;;;;;;3.05;1.20;;;;;;;;;;5076689;28;20024;-79
2022/01/05 14:22:40;;;;;;;2.17;1.08;;;;;;;;;;5075293;28;20039;-78
2022/01/05 14:25:06;;;;;;;4.32;1.38;;;;;;;;;;5076413;28;20029;-80
2022/01/05 14:27:36;;;;;;;2.60;1.00;;;;;;;;;;5075498;28;20028;-79
2022/01/05 14:30:07;;;;;;;2.05;1.00;;;;;;;;;;5076351;28;20416;-77
2022/01/05 14:32:34;;;;;;;3.42;1.02;;;;;;;;;;5076431;28;20481;-79
2022/01/05 14:35:02;;;;;;;5.45;1.23;;;;;;;;;;5076740;28;20032;-79
2022/01/05 14:37:27;;;;;;;4.55;1.15;;;;;;;;;;5076622;28;20030;-78
2022/01/05 14:39:54;;;;;;;4.40;1.58;;;;;;;;;;5076180;28;20474;-78
2022/01/05 14:42:20;;;;;;;3.15;1.15;;;;;;;;;;5074859;28;20028;-79
2022/01/05 14:44:50;;;;;;;3.15;0.85;;;;;;;;;;5076169;28;20034;-78
2022/01/05 14:47:21;;;;;;;4.05;1.20;;;;;;;;;;5075263;28;20070;-79